Time;durP1;ratioP1;P1;durP2;ratioP2;P2;SDS_P1;SDS_P2;PMS_P1;PMS_P2;Temp;Humidity;BMP_temperature;BMP_pressure;BME280_temperature;BME280_humidity;BME280_pressure;Samples;Min_cycle;Max_cycle;Signal;HPM_P1;HPM_P2
2022/01/15 00:01:07;;;;;;;33.63;13.27;;;5.70;99.90;;;;;;4841539;29;20049;-89
2022/01/15 00:03:39;;;;;;;54.70;25.73;;;5.70;99.90;;;;;;4841594;29;20150;-89
2022/01/15 00:06:17;;;;;;;58.57;25.90;;;6.00;99.90;;;;;;4807421;29;20062;-89
2022/01/15 00:08:58;;;;;;;129.20;59.40;;;6.90;99.90;;;;;;4808003;29;20058;-89
2022/01/15 00:11:39;;;;;;;130.13;61.60;;;5.80;99.90;;;;;;4806918;29;20054;-88
2022/01/15 00:14:35;;;;;;;65.23;26.23;;;5.90;99.90;;;;;;4808031;29;20050;-88
2022/01/15 00:17:21;;;;;;;113.27;47.97;;;5.80;99.90;;;;;;4808063;29;20477;-88
2022/01/15 00:19:52;;;;;;;48.97;18.50;;;6.00;99.90;;;;;;4822187;29;20042;-88
2022/01/15 00:22:27;;;;;;;276.53;105.93;;;6.80;99.90;;;;;;4807373;29;20145;-89
2022/01/15 00:24:56;;;;;;;343.40;141.60;;;5.70;99.90;;;;;;4807024;29;20103;-88
2022/01/15 00:27:30;;;;;;;99.47;45.20;;;5.80;99.90;;;;;;4807453;29;20535;-88
2022/01/15 00:30:10;;;;;;;64.97;28.33;;;5.80;99.90;;;;;;4807456;29;20046;-88
2022/01/15 00:32:39;;;;;;;50.47;22.07;;;6.10;99.90;;;;;;4806671;29;20499;-88
2022/01/15 00:35:10;;;;;;;49.03;20.60;;;5.90;99.90;;;;;;4822767;29;20054;-88
2022/01/15 00:37:43;;;;;;;34.23;12.73;;;5.90;99.90;;;;;;4822374;29;20089;-88
2022/01/15 00:40:17;;;;;;;34.55;11.48;;;5.80;99.90;;;;;;4806694;29;20058;-89
2022/01/15 00:42:55;;;;;;;33.13;11.57;;;6.00;99.90;;;;;;4807524;29;20076;-88
2022/01/15 00:45:36;;;;;;;34.20;11.20;;;6.60;99.90;;;;;;4807120;29;20060;-88
2022/01/15 00:48:05;;;;;;;42.80;12.53;;;5.90;99.90;;;;;;4806792;29;20050;-88
2022/01/15 00:50:46;;;;;;;49.47;12.93;;;5.70;99.90;;;;;;4807214;29;20133;-88
2022/01/15 00:53:18;;;;;;;32.73;11.23;;;5.50;99.90;;;;;;4806474;29;20042;-88
2022/01/15 00:55:47;;;;;;;36.60;11.77;;;5.60;99.90;;;;;;4807583;29;20079;-88
2022/01/15 00:58:27;;;;;;;35.57;11.47;;;7.50;99.90;;;;;;4822285;29;20042;-87
2022/01/15 01:00:58;;;;;;;40.37;11.43;;;6.60;99.90;;;;;;4821887;29;20138;-88
2022/01/15 01:03:30;;;;;;;26.10;10.17;;;5.70;99.90;;;;;;4825622;29;20041;-89
2022/01/15 01:06:46;;;;;;;49.07;11.63;;;5.70;99.90;;;;;;4844396;29;20108;-89
2022/01/15 01:09:12;;;;;;;32.30;10.93;;;6.00;99.90;;;;;;4842233;29;20110;-88
2022/01/15 01:11:51;;;;;;;33.77;11.53;;;6.30;99.90;;;;;;4847293;29;20041;-88
2022/01/15 01:20:08;;;;;;;43.75;11.48;;;7.30;99.90;;;;;;4847550;29;19928;-88
2022/01/15 01:25:19;;;;;;;41.22;11.45;;;5.80;99.90;;;;;;4846892;29;20054;-88
2022/01/15 01:27:49;;;;;;;46.13;12.33;;;5.80;99.90;;;;;;4847607;29;20045;-88
2022/01/15 01:32:48;;;;;;;37.13;13.87;;;5.80;99.90;;;;;;4847453;29;20437;-88
2022/01/15 01:35:29;;;;;;;32.53;13.40;;;5.80;99.90;;;;;;4846321;29;20482;-88
2022/01/15 01:37:56;;;;;;;31.73;12.67;;;5.80;99.90;;;;;;4847093;29;20060;-88
2022/01/15 01:40:36;;;;;;;40.37;12.77;;;5.80;99.90;;;;;;4846519;29;20541;-88
2022/01/15 01:43:39;;;;;;;36.67;12.10;;;5.80;99.90;;;;;;4846248;29;20089;-89
2022/01/15 01:46:12;;;;;;;32.50;11.50;;;5.90;99.90;;;;;;4847008;29;20098;-89
2022/01/15 01:48:38;;;;;;;35.17;11.48;;;5.80;99.90;;;;;;4847178;29;20053;-89
2022/01/15 01:51:07;;;;;;;37.10;12.03;;;5.80;99.90;;;;;;4846174;29;20045;-89
2022/01/15 01:53:33;;;;;;;38.83;11.73;;;5.80;99.90;;;;;;4846472;29;20045;-88
2022/01/15 01:55:59;;;;;;;49.60;12.13;;;5.80;99.90;;;;;;4846570;29;20045;-89
2022/01/15 01:58:24;;;;;;;39.53;12.30;;;5.80;99.90;;;;;;4845565;29;20418;-89
2022/01/15 02:00:50;;;;;;;32.97;10.80;;;5.80;99.90;;;;;;4846514;29;20152;-89
2022/01/15 02:03:15;;;;;;;33.80;11.00;;;5.80;99.90;;;;;;4846419;29;20070;-89
2022/01/15 02:05:41;;;;;;;35.10;11.53;;;5.80;99.90;;;;;;4845910;29;20072;-88
2022/01/15 02:08:07;;;;;;;42.97;11.80;;;5.80;99.90;;;;;;4846726;29;20050;-89
2022/01/15 02:10:33;;;;;;;39.50;11.17;;;5.80;99.90;;;;;;4845401;29;20566;-89
2022/01/15 02:13:00;;;;;;;34.27;10.73;;;5.70;99.90;;;;;;4853815;29;20075;-89
2022/01/15 02:15:47;;;;;;;32.20;10.23;;;5.80;99.90;;;;;;4846684;29;20418;-89
2022/01/15 02:18:14;;;;;;;34.20;11.33;;;5.40;99.90;;;;;;4845393;29;20044;-89
2022/01/15 02:21:02;;;;;;;38.50;10.50;;;5.80;99.90;;;;;;4846095;29;20049;-88
2022/01/15 02:23:35;;;;;;;32.70;10.90;;;5.80;99.90;;;;;;4845519;29;20048;-89
2022/01/15 02:26:08;;;;;;;39.17;10.47;;;5.60;99.90;;;;;;4845000;29;20053;-89
2022/01/15 02:28:42;;;;;;;32.83;10.63;;;6.70;99.90;;;;;;4845796;29;20047;-89
2022/01/15 02:31:10;;;;;;;30.95;10.48;;;5.60;99.90;;;;;;4846100;29;20096;-89
2022/01/15 02:33:37;;;;;;;32.83;10.40;;;5.70;99.90;;;;;;4844849;29;20077;-89
2022/01/15 02:36:06;;;;;;;32.60;10.30;;;5.70;99.90;;;;;;4863091;29;20167;-88
2022/01/15 02:38:31;;;;;;;30.67;10.07;;;5.70;99.90;;;;;;4844990;29;20169;-88
2022/01/15 02:40:57;;;;;;;27.93;8.97;;;5.80;99.90;;;;;;4845975;29;20136;-89
2022/01/15 02:43:32;;;;;;;21.60;7.93;;;5.70;99.90;;;;;;4845520;29;20048;-89
2022/01/15 02:46:18;;;;;;;24.43;8.47;;;5.70;99.90;;;;;;4860689;29;20140;-89
2022/01/15 02:48:43;;;;;;;21.90;7.37;;;5.70;99.90;;;;;;4845882;29;20037;-88
2022/01/15 02:51:11;;;;;;;18.83;6.67;;;5.70;99.90;;;;;;4861599;29;20050;-90
2022/01/15 02:53:37;;;;;;;18.07;5.80;;;5.70;99.90;;;;;;4845612;29;20053;-89
2022/01/15 02:56:03;;;;;;;18.87;6.60;;;5.70;99.90;;;;;;4845926;29;20135;-88
2022/01/15 02:58:28;;;;;;;16.30;6.40;;;5.70;99.90;;;;;;4844859;29;20439;-88
2022/01/15 03:00:54;;;;;;;17.47;6.57;;;6.80;99.90;;;;;;4844458;29;20045;-89
2022/01/15 03:03:20;;;;;;;22.33;6.47;;;5.70;99.90;;;;;;4844848;29;20045;-89
2022/01/15 03:05:46;;;;;;;15.40;5.47;;;5.70;99.90;;;;;;4844801;29;20068;-89
2022/01/15 03:08:11;;;;;;;16.90;6.17;;;5.60;99.90;;;;;;4843457;29;20161;-89
2022/01/15 03:10:37;;;;;;;16.47;5.73;;;5.60;99.90;;;;;;4845415;29;20057;-89
2022/01/15 03:13:10;;;;;;;18.30;5.77;;;5.60;99.90;;;;;;4845826;29;20083;-89
2022/01/15 03:15:36;;;;;;;17.23;5.43;;;5.60;99.90;;;;;;4844582;29;20517;-88
2022/01/15 03:18:02;;;;;;;15.73;5.37;;;6.80;99.90;;;;;;4845556;29;20045;-88
2022/01/15 03:20:27;;;;;;;17.23;6.13;;;5.60;99.90;;;;;;4849026;29;20036;-89
2022/01/15 03:22:53;;;;;;;17.57;5.90;;;5.60;99.90;;;;;;4847354;29;20038;-88
2022/01/15 03:25:28;;;;;;;19.53;5.77;;;5.60;99.90;;;;;;4844739;29;20410;-88
2022/01/15 03:27:56;;;;;;;17.53;5.93;;;6.80;99.90;;;;;;4844519;29;20065;-88
2022/01/15 03:30:22;;;;;;;19.43;6.10;;;5.40;99.90;;;;;;4844710;29;20045;-89
2022/01/15 03:32:47;;;;;;;20.53;6.30;;;5.40;99.90;;;;;;4844487;29;20502;-88
2022/01/15 03:35:19;;;;;;;22.20;6.40;;;5.60;99.90;;;;;;4844250;29;20041;-89
2022/01/15 03:37:51;;;;;;;24.27;7.13;;;6.60;99.90;;;;;;4860350;29;20459;-89
2022/01/15 03:40:16;;;;;;;31.73;8.70;;;5.20;99.90;;;;;;4844676;29;20073;-88
2022/01/15 03:42:45;;;;;;;26.50;8.07;;;6.30;99.90;;;;;;4844141;29;20102;-88
2022/01/15 03:45:13;;;;;;;29.47;8.03;;;5.50;99.90;;;;;;4844642;29;20098;-88
2022/01/15 03:47:46;;;;;;;26.83;8.80;;;5.00;99.90;;;;;;4844749;29;20042;-88
2022/01/15 03:50:13;;;;;;;40.30;9.52;;;5.60;99.90;;;;;;4859424;29;20045;-88
2022/01/15 03:52:39;;;;;;;32.57;9.63;;;5.60;99.90;;;;;;4844518;29;20045;-88
2022/01/15 03:55:06;;;;;;;28.57;9.27;;;5.50;99.90;;;;;;4859921;29;20383;-88
2022/01/15 03:57:32;;;;;;;32.47;9.20;;;5.60;99.90;;;;;;4843694;29;20430;-88
2022/01/15 03:59:59;;;;;;;28.90;9.60;;;5.60;99.90;;;;;;4860054;29;20045;-89
2022/01/15 04:02:24;;;;;;;29.93;9.63;;;5.60;99.90;;;;;;4844499;29;20481;-89
2022/01/15 04:04:53;;;;;;;21.80;7.57;;;5.60;99.90;;;;;;4843512;29;20537;-88
2022/01/15 04:07:19;;;;;;;26.83;8.27;;;5.60;99.90;;;;;;4843999;29;20089;-88
2022/01/15 04:09:44;;;;;;;26.87;8.73;;;5.50;99.90;;;;;;4844867;29;20454;-88
2022/01/15 04:12:16;;;;;;;30.30;9.40;;;5.00;99.90;;;;;;4843529;29;20494;-88
2022/01/15 04:14:42;;;;;;;31.23;9.73;;;5.30;99.90;;;;;;4844541;29;20053;-88
2022/01/15 04:17:13;;;;;;;29.80;9.33;;;5.50;99.90;;;;;;4843510;29;20581;-88
2022/01/15 04:19:45;;;;;;;29.37;9.33;;;5.80;99.90;;;;;;4844088;29;20498;-88
2022/01/15 04:22:11;;;;;;;30.33;9.73;;;5.40;99.90;;;;;;4844672;29;20068;-88
2022/01/15 04:24:40;;;;;;;27.53;8.83;;;5.50;99.90;;;;;;4843177;29;20046;-88
2022/01/15 04:27:08;;;;;;;29.57;9.80;;;5.50;99.90;;;;;;4844363;29;20060;-88
2022/01/15 04:29:34;;;;;;;29.23;8.70;;;5.50;99.90;;;;;;4849622;29;20062;-88
2022/01/15 04:32:06;;;;;;;28.87;9.33;;;5.40;99.90;;;;;;4844371;29;20049;-88
2022/01/15 04:34:31;;;;;;;24.07;8.63;;;5.50;99.90;;;;;;4844115;29;20084;-88
2022/01/15 04:37:11;;;;;;;28.87;8.97;;;5.40;99.90;;;;;;4844405;29;20111;-88
2022/01/15 04:39:37;;;;;;;27.50;8.93;;;5.50;99.90;;;;;;4858548;29;20081;-88
2022/01/15 04:42:03;;;;;;;31.00;10.20;;;5.50;99.90;;;;;;4843783;29;20088;-88
2022/01/15 04:44:29;;;;;;;27.17;9.20;;;5.50;99.90;;;;;;4843129;29;20038;-88
2022/01/15 04:46:59;;;;;;;27.80;9.57;;;5.50;99.90;;;;;;4843064;29;20498;-88
2022/01/15 04:49:40;;;;;;;29.43;9.37;;;5.40;99.90;;;;;;4843720;29;20050;-88
2022/01/15 04:52:24;;;;;;;28.97;9.53;;;5.30;99.90;;;;;;4843937;29;20401;-88
2022/01/15 04:55:01;;;;;;;29.13;9.20;;;5.30;99.90;;;;;;4843939;29;20118;-88
2022/01/15 04:57:36;;;;;;;29.90;9.67;;;5.20;99.90;;;;;;4843935;29;20071;-88
2022/01/15 05:00:14;;;;;;;27.03;9.00;;;5.40;99.90;;;;;;4842860;29;20049;-89
2022/01/15 05:02:46;;;;;;;26.63;9.50;;;5.50;99.90;;;;;;4843913;29;20053;-88
2022/01/15 05:05:25;;;;;;;24.13;8.47;;;6.20;99.90;;;;;;4839370;29;20149;-88
2022/01/15 05:07:57;;;;;;;27.73;8.73;;;5.40;99.90;;;;;;4839631;29;20099;-88
2022/01/15 05:10:27;;;;;;;23.17;9.03;;;5.30;99.90;;;;;;4900591;24;20529;-88
2022/01/15 05:12:56;;;;;;;24.60;8.20;;;5.40;99.90;;;;;;4859142;29;20112;-88
2022/01/15 05:15:23;;;;;;;23.77;8.53;;;5.40;99.90;;;;;;4858050;29;20134;-88
2022/01/15 05:17:48;;;;;;;16.07;6.20;;;5.40;99.90;;;;;;4858991;29;20053;-88
2022/01/15 05:20:17;;;;;;;13.00;4.93;;;5.40;99.90;;;;;;4858365;29;20042;-88
2022/01/15 05:22:44;;;;;;;14.57;5.57;;;5.40;99.90;;;;;;4858893;29;20486;-88
2022/01/15 05:25:13;;;;;;;15.23;5.77;;;5.40;99.90;;;;;;4858791;29;20089;-88
2022/01/15 05:27:39;;;;;;;14.87;6.07;;;5.40;99.90;;;;;;4858430;29;20614;-88
2022/01/15 05:30:06;;;;;;;16.50;5.97;;;5.30;99.90;;;;;;4858576;29;20049;-89
2022/01/15 05:32:32;;;;;;;14.03;5.40;;;5.40;99.90;;;;;;4858912;29;20075;-89
2022/01/15 05:34:57;;;;;;;17.30;5.83;;;5.40;99.90;;;;;;4858446;29;20562;-89
2022/01/15 05:37:24;;;;;;;16.30;5.50;;;6.20;99.90;;;;;;4861660;29;20054;-89
2022/01/15 05:39:50;;;;;;;14.80;5.37;;;5.30;99.90;;;;;;4864154;29;20140;-89
2022/01/15 05:42:16;;;;;;;17.13;5.77;;;5.30;99.90;;;;;;4858213;29;20137;-89
2022/01/15 05:44:42;;;;;;;16.03;5.37;;;5.30;99.90;;;;;;4860219;29;20081;-88
2022/01/15 05:47:09;;;;;;;17.13;6.33;;;5.40;99.90;;;;;;4859129;29;20072;-88
2022/01/15 05:49:35;;;;;;;17.53;5.60;;;5.30;99.90;;;;;;4858926;29;20057;-88
2022/01/15 05:52:06;;;;;;;18.30;5.63;;;5.30;99.90;;;;;;4858695;29;20060;-88
2022/01/15 05:54:32;;;;;;;15.30;5.57;;;5.20;99.90;;;;;;4858594;29;20128;-88
2022/01/15 05:56:58;;;;;;;17.70;5.47;;;5.20;99.90;;;;;;4859961;29;20049;-89
2022/01/15 05:59:24;;;;;;;22.23;6.43;;;5.30;99.90;;;;;;4861339;29;20084;-88
2022/01/15 06:01:50;;;;;;;21.60;6.33;;;5.30;99.90;;;;;;4862367;29;20087;-88
2022/01/15 06:04:16;;;;;;;26.27;7.13;;;5.30;99.90;;;;;;4861025;29;20076;-89
2022/01/15 06:06:41;;;;;;;19.80;6.33;;;5.30;99.90;;;;;;4861958;29;20060;-88
2022/01/15 06:09:10;;;;;;;23.73;8.00;;;5.30;99.90;;;;;;4861919;29;20418;-88
2022/01/15 06:11:40;;;;;;;22.47;7.73;;;5.00;99.90;;;;;;4861046;29;20049;-88
2022/01/15 06:14:05;;;;;;;26.83;8.17;;;6.00;99.90;;;;;;4861768;29;20099;-88
2022/01/15 06:16:43;;;;;;;24.37;8.50;;;5.20;99.90;;;;;;4861371;29;20084;-88
2022/01/15 06:19:12;;;;;;;25.60;8.37;;;5.20;99.90;;;;;;4862104;29;20077;-88
2022/01/15 06:21:37;;;;;;;24.17;7.93;;;6.30;99.90;;;;;;4861676;29;20527;-88
2022/01/15 06:24:15;;;;;;;25.80;9.20;;;5.20;99.90;;;;;;4860981;29;20166;-88
2022/01/15 06:26:41;;;;;;;28.20;10.17;;;4.90;99.90;;;;;;4861576;29;20577;-88
2022/01/15 06:29:06;;;;;;;28.93;9.97;;;6.50;99.90;;;;;;4861500;29;20108;-89
2022/01/15 06:31:33;;;;;;;31.60;11.67;;;5.10;99.90;;;;;;4860481;29;20132;-89
2022/01/15 06:34:04;;;;;;;29.47;11.60;;;5.10;99.90;;;;;;4861544;29;20049;-88
2022/01/15 06:36:32;;;;;;;29.23;11.40;;;5.00;99.90;;;;;;4861215;29;20450;-88
2022/01/15 06:38:58;;;;;;;30.67;11.63;;;5.20;99.90;;;;;;4861353;29;20050;-88
2022/01/15 06:41:24;;;;;;;32.37;11.53;;;5.10;99.90;;;;;;4860734;29;20057;-88
2022/01/15 06:43:49;;;;;;;33.00;11.87;;;5.00;99.90;;;;;;4861419;29;20097;-88
2022/01/15 06:46:15;;;;;;;33.77;11.23;;;5.20;99.90;;;;;;4862401;29;20048;-88
2022/01/15 06:48:41;;;;;;;29.87;11.07;;;5.00;99.90;;;;;;4866465;29;20045;-89
2022/01/15 06:51:07;;;;;;;29.47;11.00;;;5.10;99.90;;;;;;4861338;29;20138;-88
2022/01/15 06:53:41;;;;;;;29.40;10.63;;;5.20;99.90;;;;;;4859968;29;20046;-88
2022/01/15 06:56:07;;;;;;;27.83;10.40;;;5.00;99.90;;;;;;4861338;29;20049;-88
2022/01/15 06:58:51;;;;;;;27.77;10.60;;;5.00;99.90;;;;;;4860799;29;20128;-88
2022/01/15 07:01:25;;;;;;;;;;;5.30;99.90;;;;;;4860914;29;20505;-89
2022/01/15 07:03:51;;;;;;;29.27;9.95;;;5.20;99.90;;;;;;4860963;29;19924;-89
2022/01/15 07:06:16;;;;;;;26.23;10.17;;;4.90;99.90;;;;;;4860373;29;20049;-89
2022/01/15 07:08:57;;;;;;;29.07;10.50;;;6.30;99.90;;;;;;4861979;29;20587;-91
2022/01/15 07:11:32;;;;;;;29.63;10.03;;;5.20;99.90;;;;;;4863416;29;20502;-92
2022/01/15 07:14:03;;;;;;;29.47;10.27;;;6.00;99.90;;;;;;4879139;29;20044;-92
2022/01/15 07:16:29;;;;;;;32.37;10.93;;;5.10;99.90;;;;;;4863820;29;20521;-92
2022/01/15 07:18:54;;;;;;;30.07;10.67;;;5.00;99.90;;;;;;4879754;29;20057;-88
2022/01/15 07:21:20;;;;;;;28.23;10.40;;;5.10;99.90;;;;;;4862839;29;20053;-89
2022/01/15 07:23:45;;;;;;;29.13;9.73;;;5.80;99.90;;;;;;4879098;29;20181;-88
2022/01/15 07:26:19;;;;;;;28.90;9.77;;;5.10;99.90;;;;;;4879004;29;20049;-89
2022/01/15 07:29:00;;;;;;;27.43;9.33;;;5.10;99.90;;;;;;4878287;29;20041;-89
2022/01/15 07:31:35;;;;;;;26.47;8.97;;;5.50;99.90;;;;;;4878747;29;20056;-90
2022/01/15 07:34:00;;;;;;;23.23;7.73;;;4.80;99.90;;;;;;4878508;29;20485;-88
2022/01/15 07:36:26;;;;;;;19.47;6.80;;;5.10;99.90;;;;;;4863368;29;20043;-89
2022/01/15 07:38:52;;;;;;;18.37;6.60;;;5.10;99.90;;;;;;4878759;29;20089;-87
2022/01/15 07:41:17;;;;;;;17.30;6.87;;;5.00;99.90;;;;;;4861892;29;20059;-89
2022/01/15 07:43:43;;;;;;;18.80;6.50;;;4.90;99.90;;;;;;4863444;29;20153;-86
2022/01/15 07:46:27;;;;;;;15.67;6.07;;;5.00;99.90;;;;;;4878835;29;20523;-89
2022/01/15 07:48:57;;;;;;;17.05;6.13;;;5.00;99.90;;;;;;4877754;23;20049;-91
2022/01/15 07:51:23;;;;;;;19.13;6.17;;;5.00;99.90;;;;;;4841982;29;20513;-90
2022/01/15 07:54:10;;;;;;;15.27;5.57;;;5.00;99.90;;;;;;4826771;29;20140;-89
2022/01/15 07:56:45;;;;;;;17.00;6.50;;;4.70;99.90;;;;;;4850357;29;20046;-89
2022/01/15 07:59:28;;;;;;;16.97;6.10;;;5.00;99.90;;;;;;4842653;29;20053;-89
2022/01/15 08:01:54;;;;;;;17.43;7.00;;;4.80;99.90;;;;;;4841481;29;20050;-90
2022/01/15 08:04:19;;;;;;;17.43;6.50;;;5.00;99.90;;;;;;4826031;29;20153;-91
2022/01/15 08:06:45;;;;;;;22.00;7.20;;;5.00;99.90;;;;;;4841915;29;20081;-91
2022/01/15 08:09:10;;;;;;;20.80;7.40;;;4.90;99.90;;;;;;4840930;29;20046;-87
2022/01/15 08:11:36;;;;;;;22.67;7.53;;;4.90;99.90;;;;;;4840810;29;20049;-88
2022/01/15 08:14:02;;;;;;;21.03;7.57;;;5.00;99.90;;;;;;4843595;29;20046;-88
2022/01/15 08:16:27;;;;;;;22.83;8.10;;;4.90;99.90;;;;;;4825447;29;20057;-90
2022/01/15 08:18:59;;;;;;;23.03;8.60;;;5.00;99.90;;;;;;4841402;29;20137;-88
2022/01/15 08:21:33;;;;;;;27.53;9.20;;;5.00;99.90;;;;;;4841632;29;20058;-88
2022/01/15 08:24:11;;;;;;;22.13;8.67;;;4.70;99.90;;;;;;4826220;29;20049;-89
2022/01/15 08:26:55;;;;;;;20.33;7.87;;;5.30;99.90;;;;;;4840836;29;20053;-89
2022/01/15 08:29:21;;;;;;;26.02;8.27;;;6.60;99.90;;;;;;4841397;29;20137;-89
2022/01/15 08:31:56;;;;;;;19.53;7.60;;;4.80;99.90;;;;;;4828231;29;20128;-88
2022/01/15 08:34:31;;;;;;;19.07;7.40;;;4.50;99.90;;;;;;4833160;29;20042;-88
2022/01/15 08:37:00;;;;;;;20.07;7.90;;;4.50;99.90;;;;;;4835622;29;20124;-88
2022/01/15 08:39:35;;;;;;;21.90;9.07;;;5.90;99.90;;;;;;4846346;29;20049;-89
2022/01/15 08:42:07;;;;;;;20.77;7.80;;;4.20;99.90;;;;;;4848681;29;20068;-89
2022/01/15 08:44:42;;;;;;;20.30;8.03;;;5.10;99.90;;;;;;4844454;29;20835;-89
2022/01/15 08:47:08;;;;;;;20.73;7.80;;;4.10;99.90;;;;;;4840991;29;20087;-88
2022/01/15 08:49:39;;;;;;;18.80;7.63;;;5.90;99.90;;;;;;4855470;29;20062;-88
2022/01/15 08:52:11;;;;;;;18.97;7.23;;;5.00;99.90;;;;;;4833202;29;20053;-94
2022/01/15 08:54:43;;;;;;;16.57;7.03;;;4.10;99.90;;;;;;4846968;29;20157;-89
2022/01/15 08:57:15;;;;;;;19.20;7.20;;;6.00;99.90;;;;;;4840636;29;20513;-89
2022/01/15 08:59:47;;;;;;;16.33;6.90;;;4.70;99.90;;;;;;4855007;29;20045;-91
2022/01/15 09:02:16;;;;;;;15.60;6.40;;;4.70;99.90;;;;;;4840966;29;20050;-89
2022/01/15 09:04:45;;;;;;;14.30;5.97;;;4.80;99.90;;;;;;4832058;29;20129;-91
2022/01/15 09:07:23;;;;;;;13.00;5.40;;;5.10;99.90;;;;;;4857409;29;20418;-90
2022/01/15 09:09:51;;;;;;;14.70;5.90;;;5.30;99.90;;;;;;4840233;29;20050;-90
2022/01/15 09:12:22;;;;;;;15.20;6.83;;;5.30;99.90;;;;;;4855534;29;20476;-89
2022/01/15 09:14:58;;;;;;;16.07;7.37;;;4.60;99.90;;;;;;4828828;29;20065;-90
2022/01/15 09:17:25;;;;;;;17.03;8.13;;;4.90;99.90;;;;;;4845787;29;20122;-90
2022/01/15 09:19:50;;;;;;;17.67;8.67;;;4.80;99.90;;;;;;4825414;29;20058;-87
2022/01/15 09:22:36;;;;;;;17.60;8.13;;;5.40;99.90;;;;;;4841275;29;20053;-91
2022/01/15 09:25:03;;;;;;;19.67;8.70;;;5.30;99.90;;;;;;4841000;29;20091;-92
2022/01/15 09:30:22;;;;;;;18.03;8.63;;;4.80;99.90;;;;;;4840074;29;20069;-90
2022/01/15 09:33:04;;;;;;;18.73;8.70;;;5.20;99.90;;;;;;4843922;29;20062;-91
2022/01/15 09:35:37;;;;;;;20.20;9.30;;;4.30;99.90;;;;;;4843329;29;20046;-91
2022/01/15 09:38:09;;;;;;;17.70;9.10;;;4.80;99.90;;;;;;4844575;29;20053;-94
2022/01/15 09:40:40;;;;;;;18.20;8.67;;;4.70;99.90;;;;;;4859985;29;20046;-95
2022/01/15 09:43:09;;;;;;;17.03;8.47;;;4.80;99.90;;;;;;4829337;29;20554;-91
2022/01/15 09:45:39;;;;;;;21.37;9.60;;;4.50;99.90;;;;;;4838760;29;20045;-90
2022/01/15 09:48:06;;;;;;;18.20;9.00;;;4.80;99.90;;;;;;4860900;29;20418;-93
2022/01/15 09:54:17;;;;;;;19.10;9.63;;;5.00;99.90;;;;;;4846739;29;20136;-95
2022/01/15 09:56:46;;;;;;;17.00;8.83;;;5.00;99.90;;;;;;4831599;29;20094;-92
2022/01/15 09:59:24;;;;;;;19.30;9.60;;;5.80;99.90;;;;;;4828800;29;20057;-93
2022/01/15 10:01:50;;;;;;;18.87;9.57;;;6.20;99.90;;;;;;4829620;29;20113;-95
2022/01/15 10:04:15;;;;;;;19.93;10.33;;;5.40;99.90;;;;;;4830683;29;20136;-94
2022/01/15 10:07:06;;;;;;;19.93;9.80;;;5.00;99.90;;;;;;4828065;29;20061;-91
2022/01/15 10:09:32;;;;;;;20.53;10.13;;;5.00;99.90;;;;;;4828116;29;20171;-90
2022/01/15 10:12:00;;;;;;;21.23;9.57;;;5.70;99.90;;;;;;4828743;29;20141;-90
2022/01/15 10:14:43;;;;;;;22.33;10.70;;;4.70;99.90;;;;;;4850346;29;20046;-89
2022/01/15 10:17:33;;;;;;;25.93;11.47;;;5.20;99.90;;;;;;4827914;29;20141;-88
2022/01/15 10:20:00;;;;;;;25.03;11.80;;;5.00;99.90;;;;;;4835707;29;20413;-88
2022/01/15 10:22:28;;;;;;;25.07;11.43;;;4.90;99.90;;;;;;4812070;29;20047;-89
2022/01/15 10:25:23;;;;;;;26.47;11.93;;;6.10;99.90;;;;;;4818586;29;20054;-88
2022/01/15 10:28:03;;;;;;;28.00;11.93;;;5.10;99.90;;;;;;4817291;29;20131;-88
2022/01/15 10:30:44;;;;;;;25.20;11.67;;;7.00;99.90;;;;;;4816130;29;20113;-89
2022/01/15 10:33:09;;;;;;;26.43;12.20;;;5.80;99.90;;;;;;4833183;29;20501;-88
2022/01/15 10:35:42;;;;;;;26.47;12.93;;;6.00;99.90;;;;;;4842092;29;20042;-88
2022/01/15 10:38:10;;;;;;;27.27;12.50;;;4.80;99.90;;;;;;4824407;29;20046;-89
2022/01/15 10:40:45;;;;;;;26.20;12.97;;;6.20;99.90;;;;;;4843270;29;20053;-88
2022/01/15 10:43:13;;;;;;;25.73;12.13;;;4.50;99.90;;;;;;4825120;29;20058;-89
2022/01/15 10:49:16;;;;;;;27.73;13.07;;;5.00;99.90;;;;;;4901610;23;20045;-89
2022/01/15 10:51:48;;;;;;;28.33;12.73;;;4.70;99.90;;;;;;4863453;29;20486;-89
2022/01/15 10:54:19;;;;;;;27.43;12.53;;;4.90;99.90;;;;;;4867603;23;20052;-89
2022/01/15 10:57:12;;;;;;;26.80;12.57;;;5.80;99.90;;;;;;4851996;24;20053;-89
2022/01/15 10:59:56;;;;;;;23.53;11.40;;;5.00;99.90;;;;;;4860302;29;20501;-89
2022/01/15 11:02:29;;;;;;;25.50;11.68;;;5.00;99.90;;;;;;4860680;29;20144;-90
2022/01/15 11:05:00;;;;;;;23.63;11.43;;;4.80;99.90;;;;;;4860961;29;20490;-87
2022/01/15 11:07:34;;;;;;;22.50;11.13;;;4.00;99.90;;;;;;4860589;29;20478;-90
2022/01/15 11:10:02;;;;;;;22.67;10.67;;;6.00;99.90;;;;;;4860990;29;20068;-88
2022/01/15 11:12:34;;;;;;;21.97;10.40;;;4.70;99.90;;;;;;4859746;29;20053;-89
2022/01/15 11:15:07;;;;;;;19.53;9.57;;;5.00;99.90;;;;;;4860947;29;20193;-88
2022/01/15 11:17:36;;;;;;;22.27;10.10;;;3.90;99.90;;;;;;4861453;29;20125;-89
2022/01/15 11:20:08;;;;;;;19.30;10.17;;;5.80;99.90;;;;;;4860281;29;20053;-88
2022/01/15 11:22:40;;;;;;;19.10;9.77;;;4.90;99.90;;;;;;4868953;29;20049;-89
2022/01/15 11:25:12;;;;;;;20.80;10.60;;;4.60;99.90;;;;;;4863758;29;20041;-89
2022/01/15 11:27:47;;;;;;;19.47;9.67;;;4.70;99.90;;;;;;4863232;29;20057;-88
2022/01/15 11:30:18;;;;;;;19.23;9.63;;;4.70;99.90;;;;;;4862033;29;20048;-89
2022/01/15 11:36:31;;;;;;;18.30;9.00;;;4.90;99.90;;;;;;4803915;29;20054;-89
2022/01/15 11:38:58;;;;;;;18.00;8.83;;;4.60;99.90;;;;;;4804705;29;20519;-90
2022/01/15 11:41:40;;;;;;;16.13;8.03;;;4.50;99.90;;;;;;4859651;29;20090;-90
2022/01/15 11:44:37;;;;;;;15.00;8.00;;;4.80;99.90;;;;;;4868728;23;20049;-90
2022/01/15 11:47:15;;;;;;;16.87;7.93;;;5.70;99.90;;;;;;4849043;29;20050;-88
2022/01/15 11:50:28;;;;;;;16.87;8.37;;;4.60;99.90;;;;;;4848692;29;20042;-91
2022/01/15 11:52:54;;;;;;;18.23;8.80;;;6.10;99.90;;;;;;4841605;29;20046;-90
2022/01/15 11:55:27;;;;;;;18.70;9.30;;;5.70;99.90;;;;;;4840696;29;20130;-91
2022/01/15 11:58:12;;;;;;;17.92;9.18;;;4.70;99.90;;;;;;4857501;29;20050;-90
2022/01/15 12:00:43;;;;;;;16.93;9.10;;;4.40;99.90;;;;;;4872688;29;20438;-91
2022/01/15 12:03:13;;;;;;;17.70;8.67;;;4.60;99.90;;;;;;4843788;29;20058;-93
2022/01/15 12:06:09;;;;;;;18.17;9.83;;;4.60;99.90;;;;;;4849139;24;20507;-93
2022/01/15 12:08:38;;;;;;;17.67;9.80;;;4.70;99.90;;;;;;4841915;29;20093;-93
2022/01/15 12:11:05;;;;;;;19.10;9.97;;;5.20;99.90;;;;;;4827374;29;20065;-92
2022/01/15 12:13:56;;;;;;;18.97;9.70;;;4.70;99.90;;;;;;4827202;29;20381;-92
2022/01/15 12:16:36;;;;;;;17.43;9.77;;;5.00;99.90;;;;;;4826830;29;20049;-93
2022/01/15 12:19:37;;;;;;;21.13;11.37;;;5.80;99.90;;;;;;4841863;29;20065;-92
2022/01/15 12:22:03;;;;;;;21.53;11.63;;;3.10;99.90;;;;;;4822496;29;20058;-93
2022/01/15 12:24:44;;;;;;;22.40;12.13;;;5.40;99.90;;;;;;4832627;29;20049;-92
2022/01/15 12:27:12;;;;;;;21.80;11.80;;;4.60;99.90;;;;;;4841497;29;20149;-92
2022/01/15 12:29:40;;;;;;;20.90;10.57;;;4.40;99.90;;;;;;4809695;29;20050;-92
2022/01/15 12:32:06;;;;;;;21.30;10.97;;;4.70;99.90;;;;;;4832698;29;20058;-93
2022/01/15 12:34:33;;;;;;;21.03;11.57;;;4.80;99.90;;;;;;4822930;29;20054;-94
2022/01/15 12:36:59;;;;;;;21.33;10.53;;;5.00;99.90;;;;;;4807607;29;20392;-93
2022/01/15 12:39:37;;;;;;;20.97;10.90;;;5.40;99.90;;;;;;4822776;29;20108;-94
2022/01/15 12:42:04;;;;;;;17.50;9.97;;;5.90;99.90;;;;;;4822954;29;20418;-94
2022/01/15 12:44:53;;;;;;;20.43;11.13;;;4.80;99.90;;;;;;4822470;29;20066;-94
2022/01/15 12:47:21;;;;;;;19.70;10.40;;;5.30;99.90;;;;;;4822691;29;20102;-94
2022/01/15 12:49:49;;;;;;;21.43;11.33;;;4.50;99.90;;;;;;4823118;29;20050;-94
2022/01/15 12:52:24;;;;;;;21.53;10.93;;;4.50;99.90;;;;;;4825523;29;20050;-93
2022/01/15 12:55:27;;;;;;;20.23;11.67;;;5.80;99.90;;;;;;4842765;29;20109;-96
2022/01/15 12:57:53;;;;;;;19.53;10.67;;;4.20;99.90;;;;;;4826517;29;20085;-94
2022/01/15 13:00:22;;;;;;;20.60;11.13;;;5.30;99.90;;;;;;4826568;29;20082;-94
2022/01/15 13:02:52;;;;;;;21.37;11.67;;;5.70;99.90;;;;;;4841980;29;20065;-94
2022/01/15 13:05:30;;;;;;;20.43;11.27;;;4.50;99.90;;;;;;4838205;29;20482;-94
2022/01/15 13:08:00;;;;;;;20.70;11.03;;;4.60;99.90;;;;;;4828383;29;20453;-93
2022/01/15 13:10:59;;;;;;;18.67;10.60;;;3.50;99.90;;;;;;4826283;29;20053;-92
2022/01/15 13:13:52;;;;;;;21.40;11.67;;;4.50;99.90;;;;;;4841415;29;20137;-94
2022/01/15 13:16:30;;;;;;;21.57;11.30;;;4.70;99.90;;;;;;4856733;24;20089;-92
2022/01/15 13:19:21;;;;;;;20.20;10.83;;;4.60;99.90;;;;;;4862342;29;20096;-92
2022/01/15 13:21:47;;;;;;;21.67;11.30;;;4.80;99.90;;;;;;4853595;29;20050;-92
2022/01/15 13:24:14;;;;;;;20.30;11.00;;;5.20;99.90;;;;;;4860542;29;20117;-92
2022/01/15 13:26:45;;;;;;;19.80;10.73;;;4.30;99.90;;;;;;4861973;29;20136;-93
2022/01/15 13:29:42;;;;;;;21.57;11.30;;;4.30;99.90;;;;;;4861935;29;20391;-93
2022/01/15 13:32:08;;;;;;;20.90;11.67;;;4.70;99.90;;;;;;4863430;29;20045;-93